createdAt,value
2019-05-02T00:01:08.443Z,21.21
2019-05-02T00:03:41.043Z,21.21
2019-05-02T00:06:09.327Z,21.14
2019-05-02T00:08:38.972Z,21.06
2019-05-02T00:11:09.595Z,21.01
2019-05-02T00:13:39.013Z,20.92
2019-05-02T00:16:09.118Z,20.81
2019-05-02T00:18:39.578Z,20.74
2019-05-02T00:21:09.389Z,20.67
2019-05-02T00:23:38.741Z,20.64
2019-05-02T00:26:08.127Z,20.56
2019-05-02T00:28:37.401Z,20.50
2019-05-02T00:31:07.403Z,20.41
2019-05-02T00:33:37.666Z,20.38
2019-05-02T00:36:06.858Z,20.30
2019-05-02T00:38:38.355Z,20.22
2019-05-02T00:41:07.214Z,20.14
2019-05-02T00:43:36.542Z,20.07
2019-05-02T00:46:05.880Z,20.03
2019-05-02T00:48:39.711Z,19.98
2019-05-02T00:51:09.137Z,20.00
2019-05-02T00:53:38.741Z,20.01
2019-05-02T00:56:09.042Z,20.01
2019-05-02T00:58:39.116Z,19.98
2019-05-02T01:01:16.283Z,19.97
2019-05-02T01:03:51.917Z,19.95
2019-05-02T01:06:18.157Z,19.90
2019-05-02T01:08:47.401Z,19.85
2019-05-02T01:11:16.870Z,19.81
2019-05-02T01:13:50.458Z,19.73
2019-05-02T01:16:36.441Z,19.67
2019-05-02T01:19:05.938Z,19.63
2019-05-02T01:21:38.794Z,19.49
2019-05-02T01:24:06.099Z,19.46
2019-05-02T01:26:43.232Z,19.45
2019-05-02T01:29:20.103Z,19.43
2019-05-02T01:32:00.180Z,19.33
2019-05-02T01:34:31.034Z,19.26
2019-05-02T01:37:12.413Z,19.19
2019-05-02T01:39:42.680Z,19.18
2019-05-02T01:42:09.862Z,19.13
2019-05-02T01:44:39.256Z,19.08
2019-05-02T01:47:08.558Z,19.02
2019-05-02T01:49:38.137Z,18.96
2019-05-02T01:52:07.392Z,18.94
2019-05-02T01:54:40.799Z,18.92
2019-05-02T01:57:08.693Z,18.92
2019-05-02T01:59:39.052Z,18.88
2019-05-02T02:02:08.829Z,18.84
2019-05-02T02:04:38.120Z,18.77
2019-05-02T02:07:07.396Z,18.72
2019-05-02T02:09:38.912Z,18.69
2019-05-02T02:12:09.699Z,18.66
2019-05-02T02:14:38.718Z,18.63
2019-05-02T02:17:10.168Z,18.59
2019-05-02T02:19:40.773Z,18.57
2019-05-02T02:22:17.269Z,18.57
2019-05-02T02:24:48.084Z,18.55
2019-05-02T02:27:19.955Z,18.49
2019-05-02T02:29:48.459Z,18.50
2019-05-02T02:32:20.335Z,18.50
2019-05-02T02:34:48.672Z,18.49
2019-05-02T02:37:17.867Z,18.47
2019-05-02T02:39:48.517Z,18.46
2019-05-02T02:42:18.062Z,18.41
2019-05-02T02:44:48.941Z,18.37
2019-05-02T02:47:21.074Z,18.34
2019-05-02T02:49:49.189Z,18.31
2019-05-02T02:52:18.490Z,18.27
2019-05-02T02:54:47.703Z,18.25
2019-05-02T02:57:25.646Z,18.25
2019-05-02T02:59:48.013Z,18.22
2019-05-02T03:02:17.348Z,18.18
2019-05-02T03:04:46.745Z,18.16
2019-05-02T03:07:24.040Z,18.17
2019-05-02T03:09:47.158Z,18.16
2019-05-02T03:12:20.955Z,18.14
2019-05-02T03:14:51.789Z,18.13
2019-05-02T03:17:25.982Z,18.06
2019-05-02T03:19:54.499Z,18.02
2019-05-02T03:22:22.989Z,17.98
2019-05-02T03:24:52.340Z,17.94
2019-05-02T03:27:21.722Z,17.94
2019-05-02T03:29:51.100Z,17.92
2019-05-02T03:32:31.391Z,17.85
2019-05-02T03:34:53.618Z,17.78
2019-05-02T03:37:22.776Z,17.69
2019-05-02T03:39:57.226Z,17.61
2019-05-02T03:42:23.231Z,17.53
2019-05-02T03:44:56.028Z,17.51
2019-05-02T03:47:24.467Z,17.49
2019-05-02T03:49:53.656Z,17.44
2019-05-02T03:52:23.082Z,17.41
2019-05-02T03:54:52.840Z,17.38
2019-05-02T03:57:32.431Z,17.35
2019-05-02T03:59:54.647Z,17.33
2019-05-02T04:02:24.457Z,17.34
2019-05-02T04:05:00.313Z,17.36
2019-05-02T04:07:26.517Z,17.37
2019-05-02T04:09:56.683Z,17.38
2019-05-02T04:12:26.803Z,17.39
2019-05-02T04:14:57.447Z,17.39
2019-05-02T04:17:29.132Z,17.40
2019-05-02T04:19:58.778Z,17.41
2019-05-02T04:22:28.866Z,17.42
2019-05-02T04:24:58.824Z,17.44
2019-05-02T04:27:34.229Z,17.45
2019-05-02T04:30:09.762Z,17.44
2019-05-02T04:32:32.410Z,17.46
2019-05-02T04:35:02.417Z,17.49
2019-05-02T04:37:34.402Z,17.52
2019-05-02T04:40:09.080Z,17.57
2019-05-02T04:42:39.358Z,17.61
2019-05-02T04:45:23.999Z,17.62
2019-05-02T04:47:42.571Z,17.65
2019-05-02T04:50:17.828Z,17.69
2019-05-02T04:52:48.364Z,17.74
2019-05-02T04:55:26.122Z,17.77
2019-05-02T04:57:50.852Z,17.79
2019-05-02T05:00:22.372Z,17.82
2019-05-02T05:02:53.230Z,17.85
2019-05-02T05:05:25.541Z,17.86
2019-05-02T05:07:55.375Z,17.87
2019-05-02T05:10:27.685Z,17.91
2019-05-02T05:12:57.200Z,17.93
2019-05-02T05:15:37.145Z,17.96
2019-05-02T05:17:58.890Z,18.02
2019-05-02T05:20:28.901Z,18.05
2019-05-02T05:22:58.916Z,18.10
2019-05-02T05:25:39.737Z,18.15
2019-05-02T05:28:10.018Z,18.18
2019-05-02T05:30:45.278Z,18.23
2019-05-02T05:33:11.959Z,18.21
2019-05-02T05:35:43.341Z,18.26
2019-05-02T05:38:13.463Z,18.35
2019-05-02T05:40:43.538Z,18.47
2019-05-02T05:43:15.728Z,18.59
2019-05-02T05:45:53.834Z,18.70
2019-05-02T05:48:18.390Z,18.85
2019-05-02T05:50:48.476Z,18.94
2019-05-02T05:53:21.350Z,19.07
2019-05-02T05:55:53.496Z,19.24
2019-05-02T05:58:22.489Z,19.45
2019-05-02T06:00:55.419Z,19.71
2019-05-02T06:03:24.225Z,19.94
2019-05-02T06:05:53.904Z,20.18
2019-05-02T06:08:24.504Z,20.39
2019-05-02T06:10:54.640Z,20.60
2019-05-02T06:13:24.831Z,20.81
2019-05-02T06:16:01.958Z,21.02
2019-05-02T06:18:28.420Z,21.21
2019-05-02T06:21:03.344Z,21.34
2019-05-02T06:23:31.061Z,21.41
2019-05-02T06:26:07.952Z,21.53
2019-05-02T06:28:36.179Z,21.56
2019-05-02T06:31:07.215Z,21.65
2019-05-02T06:33:38.081Z,21.83
2019-05-02T06:36:08.664Z,21.99
2019-05-02T06:38:38.880Z,22.14
2019-05-02T06:41:09.231Z,22.29
2019-05-02T06:43:41.092Z,22.41
2019-05-02T06:46:16.473Z,22.57
2019-05-02T06:48:48.156Z,22.65
2019-05-02T06:51:19.548Z,22.69
2019-05-02T06:53:48.990Z,22.76
2019-05-02T06:56:19.166Z,22.83
2019-05-02T06:58:49.738Z,22.90
2019-05-02T07:01:21.313Z,22.98
2019-05-02T07:03:51.970Z,23.04
2019-05-02T07:06:22.657Z,23.10
2019-05-02T07:08:52.907Z,23.21
2019-05-02T07:11:23.521Z,23.32
2019-05-02T07:13:53.743Z,23.37
2019-05-02T07:16:38.469Z,23.43
2019-05-02T07:19:27.410Z,23.57
2019-05-02T07:21:58.560Z,23.72
2019-05-02T07:24:30.582Z,23.87
2019-05-02T07:27:02.184Z,23.97
2019-05-02T07:29:31.210Z,23.96
2019-05-02T07:32:01.378Z,23.95
2019-05-02T07:34:31.230Z,23.98
2019-05-02T07:37:01.711Z,23.99
2019-05-02T07:39:36.141Z,24.00
2019-05-02T07:42:05.759Z,24.04
2019-05-02T07:44:35.590Z,24.03
2019-05-02T07:47:05.683Z,24.08
2019-05-02T07:49:35.676Z,24.12
2019-05-02T07:52:05.954Z,24.23
2019-05-02T07:54:36.022Z,24.44
2019-05-02T07:57:06.006Z,24.71
2019-05-02T07:59:36.090Z,25.02
2019-05-02T08:02:06.092Z,25.28
2019-05-02T08:04:36.344Z,25.46
2019-05-02T08:07:06.663Z,25.54
2019-05-02T08:09:39.300Z,25.65
2019-05-02T08:12:09.137Z,25.74
2019-05-02T08:14:39.214Z,26.16
2019-05-02T08:17:16.109Z,26.53
2019-05-02T08:19:41.771Z,26.87
2019-05-02T08:22:13.788Z,27.21
2019-05-02T08:24:44.345Z,27.44
2019-05-02T08:27:23.187Z,27.69
2019-05-02T08:29:53.838Z,27.86
2019-05-02T08:32:23.890Z,28.13
2019-05-02T08:34:54.004Z,28.42
2019-05-02T08:37:24.299Z,28.88
2019-05-02T08:39:54.280Z,29.12
2019-05-02T08:42:27.711Z,29.07
2019-05-02T08:44:56.502Z,29.16
2019-05-02T08:47:28.573Z,29.19
2019-05-02T08:49:59.273Z,28.86
2019-05-02T08:52:29.376Z,28.29
2019-05-02T08:54:59.515Z,27.87
2019-05-02T08:57:29.983Z,27.99
2019-05-02T09:00:01.508Z,28.19
2019-05-02T09:02:41.209Z,28.45
2019-05-02T09:05:04.581Z,28.71
2019-05-02T09:07:37.189Z,28.62
2019-05-02T09:10:11.555Z,28.65
2019-05-02T09:12:45.267Z,28.75
2019-05-02T09:15:13.377Z,28.72
2019-05-02T09:17:51.751Z,28.34
2019-05-02T09:20:19.930Z,28.24
2019-05-02T09:22:52.201Z,28.54
2019-05-02T09:25:19.348Z,28.58
2019-05-02T09:27:49.521Z,29.01
2019-05-02T09:30:22.827Z,29.31
2019-05-02T09:32:52.295Z,29.06
2019-05-02T09:35:23.073Z,28.66
2019-05-02T09:37:53.474Z,28.63
2019-05-02T09:40:23.498Z,29.27
2019-05-02T09:42:58.533Z,30.05
2019-05-02T09:45:35.470Z,30.56
2019-05-02T09:48:07.602Z,31.03
2019-05-02T09:50:34.421Z,31.40
2019-05-02T09:53:05.105Z,31.67
2019-05-02T09:55:35.478Z,31.90
2019-05-02T09:58:05.679Z,32.34
2019-05-02T10:00:41.822Z,32.80
2019-05-02T10:03:12.199Z,33.38
2019-05-02T10:05:43.049Z,33.89
2019-05-02T10:08:13.982Z,34.41
2019-05-02T10:10:46.002Z,34.86
2019-05-02T10:13:16.348Z,35.13
2019-05-02T10:15:46.468Z,35.24
2019-05-02T10:18:19.664Z,35.10
2019-05-02T10:20:48.429Z,34.49
2019-05-02T10:23:20.747Z,33.93
2019-05-02T10:25:49.508Z,33.56
2019-05-02T10:28:19.631Z,33.68
2019-05-02T10:30:52.594Z,33.16
2019-05-02T10:33:22.436Z,32.63
2019-05-02T10:35:52.731Z,32.28
2019-05-02T10:38:22.894Z,31.90
2019-05-02T10:40:54.591Z,31.48
2019-05-02T10:43:24.740Z,31.27
2019-05-02T10:45:59.414Z,31.03
2019-05-02T10:48:29.504Z,30.56
2019-05-02T10:51:19.079Z,29.94
2019-05-02T10:53:52.597Z,29.52
2019-05-02T10:56:22.131Z,29.11
2019-05-02T10:58:52.374Z,28.85
2019-05-02T11:01:24.147Z,28.97
2019-05-02T11:04:04.870Z,29.09
2019-05-02T11:06:37.121Z,29.18
2019-05-02T11:09:09.663Z,29.29
2019-05-02T11:11:42.370Z,29.35
2019-05-02T11:14:16.369Z,29.74
2019-05-02T11:17:01.663Z,30.03
2019-05-02T11:19:45.113Z,30.39
2019-05-02T11:22:15.286Z,31.27
2019-05-02T11:24:45.515Z,32.35
2019-05-02T11:27:15.588Z,32.39
2019-05-02T11:29:45.727Z,32.83
2019-05-02T11:32:15.854Z,33.21
2019-05-02T11:34:45.929Z,32.61
2019-05-02T11:37:16.107Z,31.97
2019-05-02T11:39:51.844Z,31.28
2019-05-02T11:42:23.218Z,30.90
2019-05-02T11:44:49.754Z,30.74
2019-05-02T11:47:24.895Z,30.28
2019-05-02T11:49:55.737Z,29.89
2019-05-02T11:52:27.458Z,29.50
2019-05-02T11:54:55.044Z,29.31
2019-05-02T11:57:28.547Z,28.99
2019-05-02T11:59:59.512Z,28.63
2019-05-02T12:02:28.277Z,28.57
2019-05-02T12:04:58.392Z,28.70
2019-05-02T12:07:28.509Z,28.70
2019-05-02T12:09:58.537Z,28.75
2019-05-02T12:12:32.476Z,28.69
2019-05-02T12:15:02.398Z,28.36
2019-05-02T12:17:32.646Z,28.31
2019-05-02T12:20:02.962Z,28.08
2019-05-02T12:22:33.100Z,27.94
2019-05-02T12:25:03.102Z,27.96
2019-05-02T12:27:33.024Z,27.68
2019-05-02T12:30:03.454Z,27.33
2019-05-02T12:32:33.657Z,26.94
2019-05-02T12:35:04.422Z,26.54
2019-05-02T12:37:34.762Z,26.32
2019-05-02T12:40:06.115Z,26.28
2019-05-02T12:42:36.059Z,26.21
2019-05-02T12:45:07.955Z,25.93
2019-05-02T12:47:38.005Z,25.80
2019-05-02T12:50:08.674Z,25.66
2019-05-02T12:52:39.393Z,25.54
2019-05-02T12:55:09.937Z,25.63
2019-05-02T12:57:40.093Z,25.47
2019-05-02T13:00:12.732Z,25.49
2019-05-02T13:02:52.435Z,25.36
2019-05-02T13:05:22.340Z,25.19
2019-05-02T13:07:55.300Z,25.08
2019-05-02T13:10:35.680Z,24.99
2019-05-02T13:13:07.927Z,24.98
2019-05-02T13:15:38.035Z,24.91
2019-05-02T13:18:08.032Z,24.98
2019-05-02T13:20:39.207Z,25.16
2019-05-02T13:23:34.043Z,25.28
2019-05-02T13:26:02.472Z,25.38
2019-05-02T13:28:33.446Z,25.35
2019-05-02T13:31:05.664Z,25.52
2019-05-02T13:33:53.747Z,25.70
2019-05-02T13:36:44.745Z,25.76
2019-05-02T13:39:32.535Z,25.89
2019-05-02T13:42:02.512Z,25.80
2019-05-02T13:44:43.771Z,25.82
2019-05-02T13:47:15.490Z,25.71
2019-05-02T13:49:53.874Z,25.61
2019-05-02T13:52:19.468Z,25.73
2019-05-02T13:54:52.130Z,25.93
2019-05-02T13:57:22.170Z,25.87
2019-05-02T13:59:54.070Z,25.83
2019-05-02T14:02:42.628Z,25.76
2019-05-02T14:05:15.599Z,25.52
2019-05-02T14:07:48.380Z,25.31
2019-05-02T14:10:22.777Z,25.12
2019-05-02T14:12:54.486Z,25.04
2019-05-02T14:15:26.598Z,24.86
2019-05-02T14:17:57.263Z,24.77
2019-05-02T14:20:27.574Z,24.74
2019-05-02T14:22:58.079Z,24.78
2019-05-02T14:25:28.530Z,24.86
2019-05-02T14:27:58.902Z,24.85
2019-05-02T14:30:37.069Z,24.78
2019-05-02T14:33:03.174Z,24.81
2019-05-02T14:35:37.846Z,24.82
2019-05-02T14:38:08.946Z,24.83
2019-05-02T14:40:52.010Z,24.84
2019-05-02T14:43:46.146Z,25.10
2019-05-02T14:46:12.617Z,25.24
2019-05-02T14:48:45.205Z,25.30
2019-05-02T14:51:16.661Z,25.44
2019-05-02T14:53:48.671Z,25.42
2019-05-02T14:56:26.558Z,25.25
2019-05-02T14:58:57.136Z,25.18
2019-05-02T15:01:27.729Z,25.10
2019-05-02T15:04:03.187Z,24.97
2019-05-02T15:06:33.316Z,24.88
2019-05-02T15:09:02.799Z,24.79
2019-05-02T15:11:34.963Z,24.73
2019-05-02T15:14:05.084Z,24.67
2019-05-02T15:16:42.360Z,24.61
2019-05-02T15:19:06.806Z,24.41
2019-05-02T15:21:46.911Z,24.37
2019-05-02T15:24:15.223Z,24.36
2019-05-02T15:26:45.685Z,24.36
2019-05-02T15:29:19.667Z,24.32
2019-05-02T15:32:07.366Z,24.32
2019-05-02T15:34:57.841Z,24.31
2019-05-02T15:37:28.866Z,24.30
2019-05-02T15:42:32.280Z,24.25
2019-05-02T15:45:05.561Z,24.31
2019-05-02T15:47:37.096Z,24.28
2019-05-02T15:50:06.206Z,24.25
2019-05-02T15:52:39.217Z,24.30
2019-05-02T15:55:11.485Z,24.29
2019-05-02T15:57:43.660Z,24.25
2019-05-02T16:00:21.713Z,24.15
2019-05-02T16:02:46.659Z,24.17
2019-05-02T16:05:17.052Z,24.13
2019-05-02T16:07:47.599Z,24.08
2019-05-02T16:10:17.871Z,24.11
2019-05-02T16:12:49.732Z,24.09
2019-05-02T16:15:25.855Z,24.02
2019-05-02T16:17:52.274Z,23.98
2019-05-02T16:20:27.602Z,23.99
2019-05-02T16:22:57.582Z,24.04
2019-05-02T16:26:05.884Z,23.89
2019-05-02T16:28:36.939Z,23.83
2019-05-02T16:31:10.138Z,23.83
2019-05-02T16:33:39.507Z,23.81
2019-05-02T16:36:09.799Z,23.93
2019-05-02T16:38:40.308Z,24.18
2019-05-02T16:41:11.420Z,24.19
2019-05-02T16:43:42.072Z,24.14
2019-05-02T16:46:14.127Z,24.15
2019-05-02T16:48:44.199Z,24.14
2019-05-02T16:51:29.898Z,24.09
2019-05-02T16:53:46.454Z,23.97
2019-05-02T16:56:16.668Z,23.87
2019-05-02T16:58:47.296Z,23.59
2019-05-02T17:01:24.560Z,23.37
2019-05-02T17:03:49.951Z,23.30
2019-05-02T17:06:22.349Z,23.28
2019-05-02T17:09:02.208Z,23.09
2019-05-02T17:11:35.826Z,22.95
2019-05-02T17:14:07.167Z,22.82
2019-05-02T17:16:37.602Z,22.76
2019-05-02T17:19:08.043Z,22.67
2019-05-02T17:21:53.007Z,22.61
2019-05-02T17:24:10.393Z,22.62
2019-05-02T17:26:42.244Z,22.52
2019-05-02T17:29:16.332Z,22.37
2019-05-02T17:31:44.054Z,22.27
2019-05-02T17:34:14.918Z,22.09
2019-05-02T17:36:45.826Z,21.88
2019-05-02T17:39:18.739Z,21.73
2019-05-02T17:41:47.917Z,21.55
2019-05-02T17:44:22.226Z,21.39
2019-05-02T17:46:57.946Z,21.36
2019-05-02T17:49:23.841Z,21.26
2019-05-02T17:52:18.953Z,21.19
2019-05-02T17:54:42.434Z,21.14
2019-05-02T17:57:12.103Z,21.06
2019-05-02T17:59:42.529Z,21.03
2019-05-02T18:02:15.902Z,20.89
2019-05-02T18:04:46.590Z,20.89
2019-05-02T18:07:18.137Z,20.79
2019-05-02T18:09:47.649Z,20.75
2019-05-02T18:12:17.462Z,20.74
2019-05-02T18:14:53.074Z,20.66
2019-05-02T18:17:19.221Z,20.72
2019-05-02T18:19:49.243Z,20.65
2019-05-02T18:22:24.164Z,20.51
2019-05-02T18:24:52.676Z,20.43
2019-05-02T18:27:22.754Z,20.51
2019-05-02T18:29:52.359Z,20.51
2019-05-02T18:32:25.080Z,20.45
2019-05-02T18:34:56.869Z,20.42
2019-05-02T18:37:24.888Z,20.48
2019-05-02T18:39:56.031Z,20.42
2019-05-02T18:42:26.308Z,20.37
2019-05-02T18:44:56.029Z,20.40
2019-05-02T18:47:26.169Z,20.41
2019-05-02T18:50:04.278Z,20.46
2019-05-02T18:52:36.445Z,20.46
2019-05-02T18:55:01.632Z,20.41
2019-05-02T18:57:31.295Z,20.35
2019-05-02T19:00:02.006Z,20.42
2019-05-02T19:02:35.383Z,20.38
2019-05-02T19:05:06.147Z,20.32
2019-05-02T19:07:36.146Z,20.32
2019-05-02T19:10:08.444Z,20.31
2019-05-02T19:12:37.704Z,20.23
2019-05-02T19:15:07.371Z,20.26
2019-05-02T19:17:39.147Z,20.28
2019-05-02T19:20:29.662Z,20.31
2019-05-02T19:22:59.002Z,20.32
2019-05-02T19:25:28.396Z,20.20
2019-05-02T19:27:59.415Z,20.15
2019-05-02T19:30:32.626Z,20.09
2019-05-02T19:33:06.087Z,20.10
2019-05-02T19:35:37.624Z,20.08
2019-05-02T19:38:04.056Z,20.04
2019-05-02T19:40:33.331Z,20.02
2019-05-02T19:43:07.518Z,20.03
2019-05-02T19:45:33.536Z,19.98
2019-05-02T19:48:02.850Z,19.96
2019-05-02T19:50:39.230Z,20.02
2019-05-02T19:53:14.909Z,19.99
2019-05-02T19:55:37.149Z,19.91
2019-05-02T19:58:06.666Z,19.89
2019-05-02T20:00:41.121Z,19.82
2019-05-02T20:03:07.358Z,19.83
2019-05-02T20:05:39.286Z,19.72
2019-05-02T20:08:09.720Z,19.63
2019-05-02T20:10:39.087Z,19.58
2019-05-02T20:13:08.538Z,19.49
2019-05-02T20:15:39.448Z,19.49
2019-05-02T20:18:08.683Z,19.46
2019-05-02T20:21:03.950Z,19.46
2019-05-02T20:23:35.674Z,19.51
2019-05-02T20:26:09.518Z,19.36
2019-05-02T20:28:35.906Z,19.32
2019-05-02T20:31:05.126Z,19.37
2019-05-02T20:33:34.389Z,19.37
2019-05-02T20:36:03.750Z,19.36
2019-05-02T20:38:33.060Z,19.40
2019-05-02T20:41:02.933Z,19.45
2019-05-02T20:43:32.483Z,19.45
2019-05-02T20:46:02.647Z,19.37
2019-05-02T20:48:32.300Z,19.35
2019-05-02T20:51:02.766Z,19.33
2019-05-02T20:53:34.231Z,19.40
2019-05-02T20:56:03.056Z,19.39
2019-05-02T20:58:32.752Z,19.43
2019-05-02T21:01:08.172Z,19.49
2019-05-02T21:03:33.047Z,19.44
2019-05-02T21:06:09.808Z,19.43
2019-05-02T21:08:49.481Z,19.33
2019-05-02T21:11:18.941Z,19.40
2019-05-02T21:13:48.249Z,19.42
2019-05-02T21:16:17.557Z,19.39
2019-05-02T21:18:47.034Z,19.29
2019-05-02T21:21:16.528Z,19.34
2019-05-02T21:23:47.699Z,19.36
2019-05-02T21:26:17.097Z,19.24
2019-05-02T21:28:46.369Z,19.21
2019-05-02T21:31:15.774Z,19.27
2019-05-02T21:33:45.114Z,19.36
2019-05-02T21:36:14.715Z,19.31
2019-05-02T21:38:43.962Z,19.30
2019-05-02T21:41:13.111Z,19.22
2019-05-02T21:43:42.668Z,19.22
2019-05-02T21:46:11.906Z,19.28
2019-05-02T21:48:42.059Z,19.30
2019-05-02T21:51:13.256Z,19.29
2019-05-02T21:53:56.000Z,19.33
2019-05-02T21:56:25.522Z,19.32
2019-05-02T21:59:07.789Z,19.32
2019-05-02T22:01:42.217Z,19.26
2019-05-02T22:04:13.156Z,19.22
2019-05-02T22:06:42.847Z,19.21
2019-05-02T22:09:12.566Z,19.19
2019-05-02T22:11:43.015Z,19.19
2019-05-02T22:14:13.350Z,19.24
2019-05-02T22:16:42.973Z,19.23
2019-05-02T22:19:12.182Z,19.19
2019-05-02T22:21:43.164Z,19.23
2019-05-02T22:24:14.381Z,19.22
2019-05-02T22:26:43.641Z,19.20
2019-05-02T22:29:12.849Z,19.20
2019-05-02T22:31:43.087Z,19.15
2019-05-02T22:34:12.943Z,19.13
2019-05-02T22:36:43.238Z,19.21
2019-05-02T22:39:31.695Z,19.13
2019-05-02T22:42:01.967Z,19.06
2019-05-02T22:44:32.548Z,18.90
2019-05-02T22:47:01.832Z,18.93
2019-05-02T22:49:31.885Z,18.86
2019-05-02T22:52:01.467Z,18.80
2019-05-02T22:54:33.767Z,18.82
2019-05-02T22:57:02.575Z,18.74
2019-05-02T22:59:31.846Z,18.65
2019-05-02T23:02:02.156Z,18.71
2019-05-02T23:04:32.514Z,18.65
2019-05-02T23:07:02.445Z,18.73
2019-05-02T23:09:31.858Z,18.68
2019-05-02T23:12:02.881Z,18.65
2019-05-02T23:14:32.690Z,18.61
2019-05-02T23:17:02.218Z,18.56
2019-05-02T23:19:31.870Z,18.57
2019-05-02T23:22:02.142Z,18.55
2019-05-02T23:24:39.085Z,18.47
2019-05-02T23:27:22.399Z,18.39
2019-05-02T23:29:52.059Z,18.30
2019-05-02T23:32:23.674Z,18.27
2019-05-02T23:34:52.766Z,18.21
2019-05-02T23:37:21.999Z,18.22
2019-05-02T23:39:52.294Z,18.24
2019-05-02T23:42:21.979Z,18.27
2019-05-02T23:44:51.871Z,18.32
2019-05-02T23:47:22.446Z,18.28
2019-05-02T23:49:52.171Z,18.18
2019-05-02T23:52:22.457Z,18.27
2019-05-02T23:54:52.589Z,18.32
2019-05-02T23:57:22.977Z,18.32
2019-05-02T23:59:52.648Z,18.34
